Terminal Aerodrome Forecast
Issued by NWS

Home | Current Version | Previous Version | Text Only | Print | Product List | Glossary On
Versions: 1 2 3 4 5 6 7 8 9 10 11 12
000
FTUS45 KRIW 170500
TAFCPR
TAF
KCPR 170521Z 1706/1806 21006KT P6SM FEW090
     FM171400 22014KT P6SM FEW080
     FM171800 22014G22KT P6SM FEW080
     FM180100 22010KT P6SM SKC=

USA.gov is the U.S. government's official web portal to all federal, state and local government web resources and services.